Time;durP1;ratioP1;P1;durP2;ratioP2;P2;SDS_P1;SDS_P2;PMS_P1;PMS_P2;Temp;Humidity;BMP_temperature;BMP_pressure;BME280_temperature;BME280_humidity;BME280_pressure;Samples;Min_cycle;Max_cycle;Signal;HPM_P1;HPM_P2
2023/07/31 00:01:59;;;;;;;5.18;1.50;;;19.50;99.90;;;;;;4998406;28;20077;-66
2023/07/31 00:04:25;;;;;;;6.13;1.10;;;19.40;99.90;;;;;;4998337;28;20033;-66
2023/07/31 00:06:50;;;;;;;3.38;1.33;;;19.40;99.90;;;;;;4997836;28;20040;-66
2023/07/31 00:09:16;;;;;;;2.95;1.40;;;19.50;99.90;;;;;;4998171;28;20037;-67
2023/07/31 00:11:41;;;;;;;6.30;1.50;;;19.50;99.90;;;;;;4997319;28;20200;-66
2023/07/31 00:14:07;;;;;;;3.08;1.65;;;19.50;99.90;;;;;;4997922;28;20022;-66
2023/07/31 00:16:33;;;;;;;6.50;1.38;;;19.50;99.90;;;;;;4997551;28;20049;-66
2023/07/31 00:18:58;;;;;;;3.90;1.42;;;19.50;99.90;;;;;;4998480;28;20018;-66
2023/07/31 00:21:24;;;;;;;2.70;1.13;;;19.50;99.90;;;;;;4998007;28;20057;-66
2023/07/31 00:23:49;;;;;;;6.75;2.08;;;19.50;99.90;;;;;;4997559;28;20093;-66
2023/07/31 00:26:15;;;;;;;3.67;1.30;;;19.50;99.90;;;;;;4998206;28;20070;-67
2023/07/31 00:28:40;;;;;;;3.88;1.27;;;19.50;99.90;;;;;;4997726;28;20026;-66
2023/07/31 00:31:06;;;;;;;5.97;1.70;;;19.60;99.90;;;;;;4997858;28;20026;-66
2023/07/31 00:33:31;;;;;;;4.75;1.55;;;19.50;99.90;;;;;;4997490;28;20050;-66
2023/07/31 00:35:57;;;;;;;7.00;1.40;;;19.40;99.90;;;;;;4997951;28;20030;-66
2023/07/31 00:38:23;;;;;;;5.47;1.42;;;19.40;99.90;;;;;;4997367;28;20109;-66
2023/07/31 00:40:48;;;;;;;3.80;1.10;;;19.30;99.90;;;;;;4997530;28;20033;-66
2023/07/31 00:43:14;;;;;;;3.42;1.10;;;19.40;99.90;;;;;;4997269;28;20093;-66
2023/07/31 00:45:39;;;;;;;3.65;1.27;;;19.40;99.90;;;;;;4997203;28;20022;-66
2023/07/31 00:48:08;;;;;;;3.45;1.38;;;19.30;99.90;;;;;;4997416;28;20030;-66
2023/07/31 00:50:35;;;;;;;4.40;1.60;;;19.30;99.90;;;;;;4997346;28;20122;-66
2023/07/31 00:53:00;;;;;;;4.85;1.33;;;19.40;99.90;;;;;;4997175;28;20030;-66
2023/07/31 00:55:26;;;;;;;6.63;1.80;;;19.40;99.90;;;;;;4997255;28;20023;-66
2023/07/31 00:57:55;;;;;;;4.25;1.40;;;19.40;99.90;;;;;;4997660;28;20038;-66
2023/07/31 01:00:21;;;;;;;4.70;1.40;;;19.40;99.90;;;;;;4997024;28;20113;-66
2023/07/31 01:02:48;;;;;;;6.45;2.08;;;19.40;99.90;;;;;;4997745;28;20053;-66
2023/07/31 01:05:13;;;;;;;4.55;1.65;;;19.30;99.90;;;;;;4996777;28;20030;-66
2023/07/31 01:07:52;;;;;;;3.65;1.50;;;19.30;99.90;;;;;;4997143;28;20026;-66
2023/07/31 01:10:26;;;;;;;3.05;1.40;;;19.30;99.90;;;;;;5030372;28;20027;-66
2023/07/31 01:12:53;;;;;;;3.00;1.20;;;19.30;99.90;;;;;;5030165;28;20037;-66
2023/07/31 01:15:19;;;;;;;7.35;1.63;;;19.10;99.90;;;;;;4996567;28;20026;-66
2023/07/31 01:17:44;;;;;;;3.35;1.45;;;19.10;99.90;;;;;;4996936;28;20033;-66
2023/07/31 01:20:22;;;;;;;3.97;1.65;;;19.10;99.90;;;;;;4997130;28;20030;-66
2023/07/31 01:23:11;;;;;;;8.60;1.83;;;19.10;99.90;;;;;;4996516;28;20027;-66
2023/07/31 01:25:59;;;;;;;3.53;1.50;;;19.10;99.90;;;;;;4997317;28;20026;-66
2023/07/31 01:28:42;;;;;;;3.58;1.30;;;19.10;99.90;;;;;;4996695;28;20026;-66
2023/07/31 01:31:13;;;;;;;5.75;1.80;;;19.10;99.90;;;;;;4997244;28;20026;-66
2023/07/31 01:33:39;;;;;;;4.88;1.50;;;19.10;99.90;;;;;;5030003;28;20030;-66
2023/07/31 01:36:05;;;;;;;3.33;1.50;;;19.20;99.90;;;;;;4997074;28;20054;-66
2023/07/31 01:38:31;;;;;;;4.65;1.77;;;19.10;99.90;;;;;;4997368;28;20094;-67
2023/07/31 01:40:56;;;;;;;4.05;1.08;;;19.10;99.90;;;;;;4996772;28;20088;-66
2023/07/31 01:43:23;;;;;;;8.45;1.20;;;19.00;99.90;;;;;;4996586;28;20076;-66
2023/07/31 01:45:48;;;;;;;4.35;1.25;;;19.10;99.90;;;;;;4996353;28;20045;-66
2023/07/31 01:48:14;;;;;;;2.88;1.52;;;19.10;99.90;;;;;;4996652;28;20026;-67
2023/07/31 01:50:39;;;;;;;5.50;1.27;;;19.20;99.90;;;;;;4996330;28;20019;-66
2023/07/31 01:53:05;;;;;;;4.82;1.95;;;19.20;99.90;;;;;;4996715;28;20022;-66
2023/07/31 01:55:30;;;;;;;4.45;1.45;;;19.20;99.90;;;;;;4997237;28;20034;-66
2023/07/31 01:57:56;;;;;;;3.47;1.60;;;19.10;99.90;;;;;;4996687;28;20018;-67
2023/07/31 02:00:21;;;;;;;7.13;1.20;;;19.10;99.90;;;;;;4996345;28;20026;-66
2023/07/31 02:02:47;;;;;;;3.15;1.60;;;19.20;99.90;;;;;;4996378;28;20178;-66
2023/07/31 02:05:12;;;;;;;7.60;1.80;;;19.20;99.90;;;;;;4996329;28;20030;-66
2023/07/31 02:07:38;;;;;;;4.03;1.65;;;19.10;99.90;;;;;;4996665;28;20022;-66
2023/07/31 02:10:04;;;;;;;5.72;1.67;;;19.20;99.90;;;;;;4996523;28;20049;-66
2023/07/31 02:12:33;;;;;;;5.13;1.60;;;19.20;99.90;;;;;;4996851;28;20018;-66
2023/07/31 02:14:59;;;;;;;5.05;1.42;;;19.10;99.90;;;;;;4997068;28;20023;-66
2023/07/31 02:17:24;;;;;;;8.05;1.65;;;19.10;99.90;;;;;;4996122;28;20030;-66
2023/07/31 02:19:50;;;;;;;4.35;1.70;;;19.10;99.90;;;;;;4996349;28;20035;-66
2023/07/31 02:22:16;;;;;;;5.05;1.30;;;19.30;99.90;;;;;;4996125;28;20030;-66
2023/07/31 02:24:41;;;;;;;3.75;1.38;;;19.30;99.90;;;;;;4996460;28;20030;-66
2023/07/31 02:27:07;;;;;;;3.80;1.55;;;19.30;99.90;;;;;;4996361;28;20117;-66
2023/07/31 02:29:32;;;;;;;3.53;1.60;;;19.20;99.90;;;;;;4997152;28;20033;-66
2023/07/31 02:31:58;;;;;;;3.55;1.90;;;19.20;99.90;;;;;;4996288;28;20068;-66
2023/07/31 02:34:23;;;;;;;4.47;1.30;;;19.10;99.90;;;;;;4996752;28;20018;-66
2023/07/31 02:36:49;;;;;;;3.85;1.73;;;19.10;99.90;;;;;;5000245;28;20026;-66
2023/07/31 02:39:14;;;;;;;6.03;1.67;;;19.10;99.90;;;;;;5000571;28;20073;-67
2023/07/31 02:41:40;;;;;;;5.47;1.73;;;19.10;99.90;;;;;;5000273;28;20019;-66
2023/07/31 02:44:05;;;;;;;4.13;1.45;;;19.10;99.90;;;;;;4999506;28;20019;-67
2023/07/31 02:46:31;;;;;;;3.78;1.65;;;19.10;99.90;;;;;;4999696;28;20026;-66
2023/07/31 02:48:57;;;;;;;5.80;1.70;;;19.10;99.90;;;;;;4999441;28;20050;-66
2023/07/31 02:51:22;;;;;;;6.57;1.45;;;19.10;99.90;;;;;;4999544;28;20041;-66
2023/07/31 02:53:48;;;;;;;4.18;1.75;;;19.00;99.90;;;;;;4999438;28;20026;-66
2023/07/31 02:56:13;;;;;;;6.50;1.95;;;19.00;99.90;;;;;;4999146;28;20109;-66
2023/07/31 02:58:39;;;;;;;3.80;1.33;;;19.10;99.90;;;;;;4999190;28;20018;-67
2023/07/31 03:01:05;;;;;;;4.25;1.30;;;19.10;99.90;;;;;;4999606;28;20060;-67
2023/07/31 03:03:30;;;;;;;4.78;2.17;;;19.20;99.90;;;;;;4999441;28;20033;-66
2023/07/31 03:05:56;;;;;;;6.50;1.70;;;19.10;99.90;;;;;;4999441;28;20026;-66
2023/07/31 03:08:22;;;;;;;5.80;1.80;;;19.00;99.90;;;;;;4999267;28;20062;-67
2023/07/31 03:10:47;;;;;;;4.35;1.90;;;19.00;99.90;;;;;;4999679;28;20022;-66
2023/07/31 03:13:13;;;;;;;3.70;1.38;;;18.90;99.90;;;;;;4999836;28;20022;-66
2023/07/31 03:15:41;;;;;;;5.78;1.67;;;18.90;99.90;;;;;;4998995;28;20030;-66
2023/07/31 03:18:07;;;;;;;6.30;1.67;;;18.90;99.90;;;;;;4998942;28;20102;-66
2023/07/31 03:20:32;;;;;;;12.45;2.30;;;18.90;99.90;;;;;;4999351;28;20050;-66
2023/07/31 03:22:58;;;;;;;3.47;1.40;;;19.00;99.90;;;;;;4998867;28;20027;-66
2023/07/31 03:25:23;;;;;;;4.88;1.60;;;19.00;99.90;;;;;;4998849;28;20085;-66
2023/07/31 03:27:49;;;;;;;3.38;1.50;;;18.90;99.90;;;;;;4999400;28;20093;-66
2023/07/31 03:30:14;;;;;;;3.55;1.55;;;19.00;99.90;;;;;;4998898;28;20030;-66
2023/07/31 03:32:40;;;;;;;3.22;1.77;;;18.90;99.90;;;;;;4999140;28;20113;-66
2023/07/31 03:35:05;;;;;;;5.55;1.95;;;18.90;99.90;;;;;;4998880;28;20022;-66
2023/07/31 03:37:31;;;;;;;5.75;1.90;;;18.90;99.90;;;;;;4999205;28;20026;-66
2023/07/31 03:39:57;;;;;;;3.00;1.40;;;18.80;99.90;;;;;;4999106;28;20018;-66
2023/07/31 03:42:22;;;;;;;3.67;1.75;;;18.80;99.90;;;;;;4998788;28;20030;-66
2023/07/31 03:44:48;;;;;;;6.93;1.77;;;18.80;99.90;;;;;;4998761;28;20030;-66
2023/07/31 03:47:13;;;;;;;4.88;1.48;;;18.90;99.90;;;;;;4998488;28;20026;-66
2023/07/31 03:49:39;;;;;;;3.53;1.60;;;18.90;99.90;;;;;;4999068;28;20168;-66
2023/07/31 03:52:05;;;;;;;4.95;1.98;;;18.90;99.90;;;;;;4999305;28;20022;-66
2023/07/31 03:54:30;;;;;;;8.13;1.75;;;18.80;99.90;;;;;;4998397;28;20023;-66
2023/07/31 03:56:56;;;;;;;2.55;1.42;;;18.90;99.90;;;;;;4998316;28;20018;-66
2023/07/31 03:59:21;;;;;;;6.07;2.05;;;18.90;99.90;;;;;;4998667;28;20033;-66
2023/07/31 04:01:47;;;;;;;4.20;1.50;;;18.90;99.90;;;;;;4998833;28;20016;-66
2023/07/31 04:04:12;;;;;;;3.92;1.60;;;18.90;99.90;;;;;;4998337;28;20026;-66
2023/07/31 04:06:38;;;;;;;4.43;1.88;;;18.80;99.90;;;;;;4998153;28;20022;-67
2023/07/31 04:09:03;;;;;;;4.82;1.65;;;18.80;99.90;;;;;;4998971;28;20026;-66
2023/07/31 04:11:29;;;;;;;4.95;1.73;;;18.90;99.90;;;;;;4998149;28;20117;-66
2023/07/31 04:13:54;;;;;;;6.68;2.05;;;18.90;99.90;;;;;;4997771;28;20054;-66
2023/07/31 04:16:20;;;;;;;4.82;1.65;;;18.90;99.90;;;;;;4997860;28;20037;-66
2023/07/31 04:18:45;;;;;;;3.40;1.92;;;18.80;99.90;;;;;;4998470;28;20029;-66
2023/07/31 04:21:11;;;;;;;4.60;2.35;;;18.80;99.90;;;;;;4998412;28;20057;-66
2023/07/31 04:23:37;;;;;;;4.22;1.80;;;18.80;99.90;;;;;;4998135;28;20033;-66
2023/07/31 04:26:02;;;;;;;3.40;1.75;;;18.90;99.90;;;;;;4997677;28;20053;-66
2023/07/31 04:28:28;;;;;;;7.20;2.13;;;18.90;99.90;;;;;;4997599;28;20026;-66
2023/07/31 04:30:53;;;;;;;7.97;1.65;;;18.90;99.90;;;;;;4997701;28;20023;-66
2023/07/31 04:33:19;;;;;;;7.78;2.00;;;18.90;99.90;;;;;;4997748;28;20125;-67
2023/07/31 04:35:52;;;;;;;3.08;1.60;;;18.90;99.90;;;;;;4997668;28;20093;-66
2023/07/31 04:38:18;;;;;;;4.80;1.60;;;18.80;99.90;;;;;;4997822;28;20053;-66
2023/07/31 04:40:44;;;;;;;2.38;1.98;;;18.80;99.90;;;;;;4998126;28;20098;-66
2023/07/31 04:43:09;;;;;;;6.18;1.83;;;18.80;99.90;;;;;;4997525;28;20094;-66
2023/07/31 04:45:35;;;;;;;3.72;1.73;;;18.80;99.90;;;;;;4998020;28;20031;-66
2023/07/31 04:48:00;;;;;;;5.18;1.92;;;18.70;99.90;;;;;;4997457;28;20031;-66
2023/07/31 04:50:26;;;;;;;3.05;1.70;;;18.70;99.90;;;;;;4998049;28;20129;-66
2023/07/31 04:52:52;;;;;;;5.25;1.80;;;18.60;99.90;;;;;;4998244;28;20053;-66
2023/07/31 04:55:17;;;;;;;4.28;1.58;;;18.70;99.90;;;;;;4997227;28;20061;-66
2023/07/31 04:57:43;;;;;;;2.50;1.55;;;18.60;99.90;;;;;;4997348;28;20030;-66
2023/07/31 05:00:09;;;;;;;3.47;1.60;;;18.60;99.90;;;;;;4997079;28;20082;-66
2023/07/31 05:02:34;;;;;;;2.88;1.73;;;18.70;99.90;;;;;;4997255;28;20030;-66
2023/07/31 05:05:00;;;;;;;4.40;1.95;;;18.70;99.90;;;;;;4997247;28;20084;-66
2023/07/31 05:07:25;;;;;;;4.70;1.63;;;18.70;99.90;;;;;;4997571;28;20030;-66
2023/07/31 05:09:51;;;;;;;4.57;1.95;;;18.60;99.90;;;;;;4997521;28;20022;-66
2023/07/31 05:12:16;;;;;;;10.27;1.70;;;18.60;99.90;;;;;;4997307;28;20094;-66
2023/07/31 05:14:42;;;;;;;6.97;2.00;;;18.60;99.90;;;;;;4997054;28;20023;-66
2023/07/31 05:17:07;;;;;;;5.95;1.65;;;18.70;99.90;;;;;;4997036;28;20030;-69
2023/07/31 05:19:33;;;;;;;5.45;1.85;;;18.70;99.90;;;;;;4997153;28;20089;-69
2023/07/31 05:21:58;;;;;;;5.32;2.15;;;18.70;99.90;;;;;;4996886;28;20053;-69
2023/07/31 05:24:24;;;;;;;3.92;1.85;;;18.60;99.90;;;;;;4997579;28;20026;-70
2023/07/31 05:26:49;;;;;;;5.10;1.92;;;18.60;99.90;;;;;;4996883;28;20019;-70
2023/07/31 05:29:16;;;;;;;4.13;1.70;;;18.70;99.90;;;;;;4997216;28;20026;-70
2023/07/31 05:31:42;;;;;;;2.83;1.70;;;18.70;99.90;;;;;;4996755;28;20026;-70
2023/07/31 05:34:07;;;;;;;5.50;1.75;;;18.80;99.90;;;;;;4996688;28;20032;-69
2023/07/31 05:36:33;;;;;;;4.88;1.85;;;18.70;99.90;;;;;;4996705;28;20114;-70
2023/07/31 05:38:58;;;;;;;4.93;2.33;;;18.70;99.90;;;;;;4996851;28;20121;-69
2023/07/31 05:41:24;;;;;;;3.75;1.73;;;18.70;99.90;;;;;;4996853;28;20022;-69
2023/07/31 05:43:51;;;;;;;4.18;1.80;;;18.70;99.90;;;;;;4997362;28;20089;-69
2023/07/31 05:46:16;;;;;;;3.33;1.38;;;18.70;99.90;;;;;;4997297;28;20034;-69
2023/07/31 05:48:42;;;;;;;5.38;1.58;;;18.70;99.90;;;;;;4996434;28;20028;-69
2023/07/31 05:51:07;;;;;;;3.72;1.15;;;18.70;99.90;;;;;;4996450;28;20061;-69
2023/07/31 05:53:33;;;;;;;6.30;1.45;;;18.80;99.90;;;;;;4996381;28;20104;-69
2023/07/31 05:55:58;;;;;;;5.22;2.25;;;18.70;99.90;;;;;;4996508;28;20027;-69
2023/07/31 05:58:24;;;;;;;4.00;1.67;;;18.70;99.90;;;;;;4996605;28;20026;-69
2023/07/31 06:00:49;;;;;;;2.55;1.42;;;18.70;99.90;;;;;;4997126;28;20057;-69
2023/07/31 06:03:15;;;;;;;3.22;1.73;;;18.80;99.90;;;;;;4996682;28;20098;-69
2023/07/31 06:05:40;;;;;;;6.85;1.55;;;18.80;99.90;;;;;;4996672;28;20058;-69
2023/07/31 06:08:06;;;;;;;4.65;1.75;;;18.70;99.90;;;;;;4996572;28;20026;-69
2023/07/31 06:10:32;;;;;;;3.97;1.80;;;18.70;99.90;;;;;;4998556;28;20033;-69
2023/07/31 06:12:57;;;;;;;2.83;1.40;;;18.80;99.90;;;;;;5000464;28;20037;-69
2023/07/31 06:15:23;;;;;;;3.42;1.73;;;18.90;99.90;;;;;;5000520;28;20022;-69
2023/07/31 06:17:48;;;;;;;4.53;1.90;;;18.90;99.90;;;;;;5000106;28;20023;-69
2023/07/31 06:20:14;;;;;;;4.10;1.80;;;18.90;99.90;;;;;;5000005;28;20022;-69
2023/07/31 06:22:39;;;;;;;3.78;2.00;;;18.90;99.90;;;;;;5000814;28;20048;-69
2023/07/31 06:25:05;;;;;;;9.23;1.85;;;18.90;99.90;;;;;;5000163;28;20033;-70
2023/07/31 06:27:31;;;;;;;6.00;1.75;;;18.90;99.90;;;;;;4999996;28;20033;-69
2023/07/31 06:29:57;;;;;;;3.17;1.90;;;18.90;99.90;;;;;;5000509;28;20034;-69
2023/07/31 06:32:23;;;;;;;5.07;1.80;;;18.90;99.90;;;;;;5000451;28;20033;-70
2023/07/31 06:34:48;;;;;;;5.35;1.95;;;18.90;99.90;;;;;;5000154;28;20022;-69
2023/07/31 06:37:14;;;;;;;5.15;1.77;;;18.80;99.90;;;;;;4999643;28;20018;-69
2023/07/31 06:39:39;;;;;;;2.83;1.70;;;18.90;99.90;;;;;;5000703;28;20018;-69
2023/07/31 06:42:05;;;;;;;7.82;1.95;;;19.00;99.90;;;;;;4999928;28;20024;-69
2023/07/31 06:44:30;;;;;;;3.85;1.98;;;19.00;99.90;;;;;;4999791;28;20018;-69
2023/07/31 06:46:56;;;;;;;7.10;2.05;;;19.00;99.90;;;;;;4999880;28;20022;-70
2023/07/31 06:49:21;;;;;;;9.15;2.00;;;19.00;99.90;;;;;;5000026;28;20026;-69
2023/07/31 06:51:47;;;;;;;5.70;1.73;;;19.10;99.90;;;;;;5000002;28;20027;-70
2023/07/31 06:54:13;;;;;;;5.47;1.73;;;19.10;99.90;;;;;;4999722;28;20026;-69
2023/07/31 06:56:38;;;;;;;6.43;1.90;;;19.20;99.90;;;;;;4999405;28;20034;-69
2023/07/31 06:59:04;;;;;;;4.65;1.90;;;19.30;99.90;;;;;;5000137;28;20104;-69
2023/07/31 07:01:29;;;;;;;3.03;2.10;;;19.20;99.90;;;;;;4999947;28;20034;-69
2023/07/31 07:03:55;;;;;;;7.38;2.20;;;19.10;99.90;;;;;;4999529;28;20113;-70
2023/07/31 07:06:22;;;;;;;7.90;2.05;;;19.10;99.90;;;;;;5000048;28;20033;-70
2023/07/31 07:08:48;;;;;;;3.67;1.77;;;19.10;99.90;;;;;;4999754;28;20117;-69
2023/07/31 07:11:13;;;;;;;7.68;2.13;;;19.00;99.90;;;;;;4999033;28;20117;-70
2023/07/31 07:13:39;;;;;;;6.28;2.30;;;19.00;99.90;;;;;;4999273;28;20027;-70
2023/07/31 07:16:04;;;;;;;4.05;2.25;;;19.10;99.90;;;;;;4999226;28;20113;-69
2023/07/31 07:18:30;;;;;;;9.95;2.50;;;19.10;99.90;;;;;;4999735;28;20057;-70
2023/07/31 07:20:58;;;;;;;5.00;1.65;;;19.20;99.90;;;;;;4998004;28;20061;-72
2023/07/31 07:23:23;;;;;;;3.63;1.92;;;19.10;99.90;;;;;;4999715;28;20058;-70
2023/07/31 07:25:49;;;;;;;5.28;1.67;;;19.20;99.90;;;;;;4999514;28;20092;-69
2023/07/31 07:28:14;;;;;;;3.85;1.65;;;19.20;99.90;;;;;;4998760;28;20026;-70
2023/07/31 07:30:41;;;;;;;4.32;1.73;;;19.20;99.90;;;;;;4999714;28;20033;-71
2023/07/31 07:33:06;;;;;;;7.70;2.13;;;19.20;99.90;;;;;;4998954;28;20026;-71
2023/07/31 07:35:36;;;;;;;9.65;2.75;;;19.30;99.90;;;;;;4998939;28;20022;-71
2023/07/31 07:38:02;;;;;;;6.82;2.13;;;19.30;99.90;;;;;;4999197;28;20117;-70
2023/07/31 07:40:28;;;;;;;5.38;2.13;;;19.30;99.90;;;;;;4998823;28;20030;-70
2023/07/31 07:42:54;;;;;;;5.75;2.13;;;19.30;99.90;;;;;;4998773;28;20023;-71
2023/07/31 07:45:19;;;;;;;5.07;2.15;;;19.30;99.90;;;;;;4998578;28;20030;-69
2023/07/31 07:47:45;;;;;;;9.05;2.58;;;19.30;99.90;;;;;;4998401;28;20030;-70
2023/07/31 07:50:10;;;;;;;3.38;1.80;;;19.30;99.90;;;;;;4999056;28;20034;-70
2023/07/31 07:52:36;;;;;;;3.10;1.88;;;19.30;99.90;;;;;;4998627;28;20050;-70
2023/07/31 07:55:03;;;;;;;5.43;2.50;;;19.30;99.90;;;;;;4998984;28;20026;-73
2023/07/31 07:57:29;;;;;;;16.13;2.42;;;19.40;99.90;;;;;;4998458;28;20030;-70
2023/07/31 07:59:54;;;;;;;6.18;2.30;;;19.40;99.90;;;;;;4998417;28;20076;-70
2023/07/31 08:02:21;;;;;;;6.10;2.42;;;19.50;99.90;;;;;;4998935;28;20022;-71
2023/07/31 08:04:47;;;;;;;6.63;2.55;;;19.50;99.90;;;;;;4998267;28;20022;-71
2023/07/31 08:07:12;;;;;;;7.22;2.20;;;19.60;99.90;;;;;;4998261;28;20037;-71
2023/07/31 08:09:38;;;;;;;13.18;1.95;;;19.60;99.90;;;;;;4998063;28;20030;-70
2023/07/31 08:12:04;;;;;;;7.03;2.30;;;19.60;99.90;;;;;;4998102;28;20029;-71
2023/07/31 08:14:30;;;;;;;4.13;2.25;;;19.50;99.90;;;;;;4998396;28;20034;-71
2023/07/31 08:16:56;;;;;;;5.03;2.40;;;19.40;99.90;;;;;;4997988;28;20031;-71
2023/07/31 08:19:21;;;;;;;4.30;2.28;;;19.50;99.90;;;;;;4997646;28;20027;-71
2023/07/31 08:21:47;;;;;;;8.70;2.30;;;19.60;99.90;;;;;;4997613;28;20038;-71
2023/07/31 08:24:12;;;;;;;5.97;2.20;;;19.60;99.90;;;;;;4997999;28;20058;-71
2023/07/31 08:26:38;;;;;;;6.35;2.10;;;19.60;99.90;;;;;;4997822;28;20050;-70
2023/07/31 08:29:04;;;;;;;2.67;2.33;;;19.70;99.90;;;;;;4997658;28;20023;-69
2023/07/31 08:31:29;;;;;;;7.22;2.13;;;19.70;99.90;;;;;;4997471;28;20096;-69
2023/07/31 08:33:56;;;;;;;4.57;1.80;;;19.70;99.90;;;;;;4998139;28;20019;-70
2023/07/31 08:36:21;;;;;;;9.20;2.45;;;19.70;99.90;;;;;;4997724;28;20049;-71
2023/07/31 08:38:47;;;;;;;9.43;1.90;;;19.80;99.90;;;;;;4997511;28;20018;-69
2023/07/31 08:41:13;;;;;;;4.85;1.88;;;19.90;99.90;;;;;;4997476;28;20037;-69
2023/07/31 08:43:39;;;;;;;7.00;2.13;;;20.00;99.90;;;;;;4997546;28;20100;-69
2023/07/31 08:46:05;;;;;;;7.28;2.70;;;20.00;99.90;;;;;;4997457;28;20022;-69
2023/07/31 08:48:32;;;;;;;4.78;2.40;;;20.10;99.90;;;;;;4997899;28;20033;-69
2023/07/31 08:50:58;;;;;;;4.60;2.40;;;20.20;99.90;;;;;;4997881;28;20053;-69
2023/07/31 08:53:23;;;;;;;5.57;2.45;;;20.20;99.90;;;;;;4997584;28;20018;-69
2023/07/31 08:55:52;;;;;;;5.63;2.28;;;20.30;99.90;;;;;;4997315;28;20026;-69
2023/07/31 08:58:18;;;;;;;6.35;2.63;;;20.30;99.90;;;;;;4997621;28;20023;-69
2023/07/31 09:00:46;;;;;;;9.57;2.47;;;20.40;99.90;;;;;;4997602;28;20033;-69
2023/07/31 09:03:17;;;;;;;8.50;2.63;;;20.40;99.90;;;;;;4997204;28;20050;-69
2023/07/31 09:05:45;;;;;;;6.93;2.25;;;20.30;99.90;;;;;;4996994;28;20034;-69
2023/07/31 09:08:13;;;;;;;12.95;2.80;;;20.30;99.90;;;;;;4997217;28;20157;-70
2023/07/31 09:10:46;;;;;;;5.57;2.50;;;20.20;99.90;;;;;;4997770;28;20031;-69
2023/07/31 09:13:12;;;;;;;7.28;2.38;;;20.20;99.90;;;;;;4997358;28;20057;-69
2023/07/31 09:15:38;;;;;;;6.68;2.50;;;20.10;99.90;;;;;;4996818;28;20052;-69
2023/07/31 09:18:05;;;;;;;6.50;2.25;;;20.10;99.90;;;;;;4997095;28;20022;-70
2023/07/31 09:20:34;;;;;;;8.32;2.42;;;20.10;99.90;;;;;;4997499;28;20030;-70
2023/07/31 09:23:11;;;;;;;6.65;2.42;;;20.00;99.90;;;;;;4997574;28;20185;-70
2023/07/31 09:25:37;;;;;;;10.68;3.78;;;20.00;99.90;;;;;;4996795;28;20038;-70
2023/07/31 09:28:08;;;;;;;7.20;2.40;;;19.90;99.90;;;;;;4997107;28;20033;-70
2023/07/31 09:30:51;;;;;;;7.77;2.60;;;19.90;99.90;;;;;;4997041;28;20093;-70
2023/07/31 09:33:18;;;;;;;10.95;2.90;;;19.80;99.90;;;;;;4997283;28;20027;-69
2023/07/31 09:36:40;;;;;;;7.13;2.40;;;19.70;99.90;;;;;;4996728;28;20029;-70
2023/07/31 09:39:09;;;;;;;6.22;2.88;;;19.60;99.90;;;;;;4997795;28;20026;-70
2023/07/31 09:41:45;;;;;;;6.63;2.60;;;19.60;99.90;;;;;;4996863;28;20030;-70
2023/07/31 09:44:11;;;;;;;8.93;2.60;;;19.50;99.90;;;;;;4997254;28;20022;-69
2023/07/31 09:46:37;;;;;;;8.32;2.72;;;19.30;99.90;;;;;;5000937;28;20041;-69
2023/07/31 09:49:14;;;;;;;7.30;2.83;;;19.20;99.90;;;;;;5001850;28;20109;-69
2023/07/31 09:51:41;;;;;;;7.30;2.47;;;19.10;99.90;;;;;;5000770;28;20019;-69
2023/07/31 09:54:15;;;;;;;6.60;2.95;;;19.00;99.90;;;;;;5001000;28;20057;-69
2023/07/31 09:56:48;;;;;;;7.13;2.70;;;19.10;99.90;;;;;;5033998;28;20022;-70
2023/07/31 09:59:16;;;;;;;14.15;2.95;;;19.10;99.90;;;;;;5000640;28;20113;-69
2023/07/31 10:01:43;;;;;;;7.55;2.83;;;19.00;99.90;;;;;;5000922;28;20031;-70
2023/07/31 10:04:10;;;;;;;10.00;3.17;;;19.00;99.90;;;;;;5000443;28;20027;-70
2023/07/31 10:06:38;;;;;;;6.75;2.72;;;19.00;99.90;;;;;;5000376;28;20027;-70
2023/07/31 10:09:06;;;;;;;9.25;2.53;;;19.00;99.90;;;;;;5000072;28;20065;-70
2023/07/31 10:11:38;;;;;;;7.45;2.88;;;19.10;99.90;;;;;;5000391;28;20121;-70
2023/07/31 10:14:05;;;;;;;6.57;2.28;;;19.10;99.90;;;;;;5033730;28;20062;-70
2023/07/31 10:16:31;;;;;;;10.30;2.60;;;19.00;99.90;;;;;;5000237;28;20037;-70
2023/07/31 10:18:58;;;;;;;7.57;2.47;;;19.00;99.90;;;;;;5000258;28;20085;-70
2023/07/31 10:21:23;;;;;;;5.72;2.10;;;18.90;99.90;;;;;;5000229;28;20026;-70
2023/07/31 10:23:50;;;;;;;10.50;3.08;;;18.90;99.90;;;;;;5000261;28;20038;-70
2023/07/31 10:26:18;;;;;;;5.68;2.15;;;18.90;99.90;;;;;;5000564;28;20054;-70
2023/07/31 10:28:46;;;;;;;6.75;2.50;;;19.00;99.90;;;;;;4999962;28;20113;-70
2023/07/31 10:31:13;;;;;;;5.45;2.60;;;19.10;99.90;;;;;;4999997;28;20084;-69
2023/07/31 10:33:39;;;;;;;6.28;2.10;;;19.10;99.90;;;;;;5000774;28;20109;-70
2023/07/31 10:36:19;;;;;;;10.45;3.08;;;19.10;99.90;;;;;;5000130;28;20121;-70
2023/07/31 10:38:45;;;;;;;7.78;2.13;;;19.10;99.90;;;;;;4999830;28;20022;-70
2023/07/31 10:41:11;;;;;;;5.72;2.75;;;19.10;99.90;;;;;;4999698;28;20166;-70
2023/07/31 10:43:37;;;;;;;8.93;2.90;;;19.10;99.90;;;;;;5000282;28;20065;-69
2023/07/31 10:46:12;;;;;;;6.03;2.50;;;19.10;99.90;;;;;;5000069;28;20032;-69
2023/07/31 10:48:41;;;;;;;6.07;2.28;;;19.10;99.90;;;;;;4999701;28;20022;-70
2023/07/31 10:51:09;;;;;;;3.97;1.80;;;19.20;99.90;;;;;;5000421;28;20030;-69
2023/07/31 10:53:35;;;;;;;9.57;2.83;;;19.10;99.90;;;;;;4999604;28;20022;-69
2023/07/31 10:56:08;;;;;;;8.55;2.50;;;19.00;99.90;;;;;;4999269;28;20206;-69
2023/07/31 10:58:36;;;;;;;5.50;2.20;;;19.00;99.90;;;;;;4999340;28;20030;-69
2023/07/31 11:01:04;;;;;;;6.13;2.53;;;19.10;99.90;;;;;;4999379;28;20026;-69
2023/07/31 11:03:56;;;;;;;4.30;1.98;;;19.20;99.90;;;;;;4999572;28;20037;-70
2023/07/31 11:06:22;;;;;;;7.68;3.28;;;19.30;99.90;;;;;;4997104;28;20035;-69
2023/07/31 11:08:49;;;;;;;9.80;2.70;;;19.30;99.90;;;;;;4999005;28;20033;-70
2023/07/31 11:11:17;;;;;;;7.97;2.55;;;19.40;99.90;;;;;;4999519;28;20027;-71
2023/07/31 11:13:50;;;;;;;9.75;2.53;;;19.50;99.90;;;;;;4999292;28;20026;-70
2023/07/31 11:16:16;;;;;;;6.15;2.70;;;19.60;99.90;;;;;;5015629;23;20040;-66
2023/07/31 11:18:44;;;;;;;7.22;2.28;;;19.60;99.90;;;;;;5039167;28;20063;-66
2023/07/31 11:21:15;;;;;;;6.45;2.35;;;19.80;99.90;;;;;;5038506;28;20025;-67
2023/07/31 11:23:41;;;;;;;4.65;2.42;;;20.00;99.90;;;;;;5038554;28;20103;-66
2023/07/31 11:26:07;;;;;;;6.00;2.85;;;20.20;99.90;;;;;;5040781;28;20034;-67
2023/07/31 11:28:34;;;;;;;4.45;2.35;;;20.20;99.90;;;;;;5059016;28;20032;-66
2023/07/31 11:31:00;;;;;;;6.22;3.03;;;20.30;99.90;;;;;;5058104;28;20021;-67
2023/07/31 11:33:26;;;;;;;6.88;2.85;;;20.30;99.90;;;;;;5057978;28;20025;-66
2023/07/31 11:35:52;;;;;;;6.20;2.38;;;20.30;99.90;;;;;;5058873;28;20021;-66
2023/07/31 11:38:32;;;;;;;6.22;2.53;;;20.30;99.90;;;;;;5058124;28;20025;-67
2023/07/31 11:40:59;;;;;;;4.82;2.30;;;20.30;99.90;;;;;;5057950;28;20170;-67
2023/07/31 11:43:26;;;;;;;6.35;2.50;;;20.30;99.90;;;;;;5057797;28;20032;-66
2023/07/31 11:45:54;;;;;;;6.18;2.38;;;20.40;99.90;;;;;;5057617;28;20123;-66
2023/07/31 11:48:26;;;;;;;5.57;2.58;;;20.50;99.90;;;;;;5058573;28;20032;-67
2023/07/31 11:50:53;;;;;;;6.65;2.28;;;20.50;99.90;;;;;;5058639;28;20132;-66
2023/07/31 11:53:45;;;;;;;6.07;2.75;;;20.50;99.90;;;;;;5058155;28;20032;-67
2023/07/31 11:56:13;;;;;;;6.85;2.63;;;20.50;99.90;;;;;;5057558;28;20025;-66
2023/07/31 11:58:40;;;;;;;6.97;2.33;;;20.60;99.90;;;;;;5058550;28;20027;-66
2023/07/31 12:01:07;;;;;;;7.35;3.13;;;20.60;99.90;;;;;;5057567;28;20083;-66
2023/07/31 12:03:33;;;;;;;7.60;3.28;;;20.60;99.90;;;;;;5057952;28;20047;-66
2023/07/31 12:05:59;;;;;;;8.30;2.83;;;20.70;99.90;;;;;;5057505;28;20032;-66
2023/07/31 12:08:26;;;;;;;4.88;1.92;;;20.70;99.90;;;;;;5056760;28;20032;-66
2023/07/31 12:10:53;;;;;;;5.53;2.90;;;20.80;99.90;;;;;;5058681;28;20029;-67
2023/07/31 12:13:26;;;;;;;5.72;2.40;;;20.90;99.90;;;;;;5057500;28;20021;-66
2023/07/31 12:15:57;;;;;;;5.45;2.00;;;20.80;99.90;;;;;;5058388;28;20025;-66
2023/07/31 12:18:24;;;;;;;6.50;2.67;;;20.80;99.90;;;;;;5057634;28;20108;-66
2023/07/31 12:20:54;;;;;;;4.07;2.10;;;20.80;99.90;;;;;;5057151;28;20071;-66
2023/07/31 12:23:28;;;;;;;6.50;2.05;;;20.80;99.90;;;;;;5057182;28;20032;-66
2023/07/31 12:26:13;;;;;;;5.30;2.22;;;20.80;99.90;;;;;;5058184;28;20112;-67
2023/07/31 12:28:49;;;;;;;3.88;1.70;;;20.80;99.90;;;;;;5057641;28;20021;-67
2023/07/31 12:31:17;;;;;;;5.78;2.38;;;20.80;99.90;;;;;;5057812;28;20060;-66
2023/07/31 12:33:43;;;;;;;5.35;2.42;;;20.90;99.90;;;;;;5056796;28;20025;-67
2023/07/31 12:36:14;;;;;;;5.85;2.85;;;20.90;99.90;;;;;;5056962;28;20036;-67
2023/07/31 12:38:40;;;;;;;5.35;2.22;;;21.00;99.90;;;;;;5057261;28;20112;-66
2023/07/31 12:41:08;;;;;;;8.10;2.83;;;21.30;99.90;;;;;;5057944;28;20177;-67
2023/07/31 12:43:35;;;;;;;3.80;2.00;;;21.80;99.90;;;;;;5056992;28;20036;-66
2023/07/31 12:46:01;;;;;;;5.97;2.40;;;22.60;99.90;;;;;;5056586;28;20213;-67